createdAt,value
2023-04-09T00:01:08.255Z,99.90
2023-04-09T00:03:36.405Z,99.90
2023-04-09T00:06:04.410Z,99.90
2023-04-09T00:08:31.718Z,99.90
2023-04-09T00:10:59.636Z,99.90
2023-04-09T00:13:38.441Z,99.90
2023-04-09T00:16:07.390Z,99.90
2023-04-09T00:18:34.416Z,99.90
2023-04-09T00:21:01.321Z,99.90
2023-04-09T00:23:28.326Z,99.90
2023-04-09T00:25:55.354Z,99.90
2023-04-09T00:28:22.287Z,99.90
2023-04-09T00:30:49.284Z,99.90
2023-04-09T00:33:16.210Z,99.90
2023-04-09T00:35:43.267Z,99.90
2023-04-09T00:38:10.611Z,99.90
2023-04-09T00:40:37.474Z,99.90
2023-04-09T00:43:04.352Z,99.90
2023-04-09T00:45:32.038Z,99.90
2023-04-09T00:47:59.497Z,99.90
2023-04-09T00:50:26.534Z,99.90
2023-04-09T00:52:53.634Z,99.90
2023-04-09T00:55:22.496Z,99.90
2023-04-09T00:57:49.427Z,99.90
2023-04-09T01:00:16.674Z,99.90
2023-04-09T01:02:44.581Z,99.90
2023-04-09T01:05:12.911Z,99.90
2023-04-09T01:07:39.910Z,99.90
2023-04-09T01:10:22.890Z,99.90
2023-04-09T01:13:07.551Z,99.90
2023-04-09T01:15:40.048Z,99.90
2023-04-09T01:18:12.363Z,99.90
2023-04-09T01:20:58.233Z,99.90
2023-04-09T01:23:45.487Z,99.90
2023-04-09T01:26:37.080Z,99.90
2023-04-09T01:29:05.950Z,99.90
2023-04-09T01:31:36.801Z,99.90
2023-04-09T01:34:05.055Z,99.90
2023-04-09T01:36:32.894Z,99.90
2023-04-09T01:39:02.342Z,99.90
2023-04-09T01:41:32.678Z,99.90
2023-04-09T01:44:04.052Z,99.90
2023-04-09T01:46:32.370Z,99.90
2023-04-09T01:49:00.121Z,99.90
2023-04-09T01:51:27.501Z,99.90
2023-04-09T01:53:54.607Z,99.90
2023-04-09T01:56:21.661Z,99.90
2023-04-09T01:58:48.635Z,99.90
2023-04-09T02:01:32.823Z,99.90
2023-04-09T02:04:11.506Z,99.90
2023-04-09T02:06:43.953Z,99.90
2023-04-09T02:09:12.723Z,99.90
2023-04-09T02:11:42.454Z,99.90
2023-04-09T02:14:11.521Z,99.90
2023-04-09T02:16:40.156Z,99.90
2023-04-09T02:19:07.069Z,99.90
2023-04-09T02:21:34.115Z,99.90
2023-04-09T02:24:01.249Z,99.90
2023-04-09T02:26:28.239Z,99.90
2023-04-09T02:28:55.147Z,99.90
2023-04-09T02:31:22.385Z,99.90
2023-04-09T02:33:51.497Z,99.90
2023-04-09T02:36:18.396Z,99.90
2023-04-09T02:38:45.685Z,99.90
2023-04-09T02:41:12.660Z,99.90
2023-04-09T02:43:39.586Z,99.90
2023-04-09T02:46:08.515Z,99.90
2023-04-09T02:48:35.402Z,99.90
2023-04-09T02:51:04.730Z,99.90
2023-04-09T02:53:31.742Z,99.90
2023-04-09T02:55:58.701Z,99.90
2023-04-09T02:58:25.569Z,99.90
2023-04-09T03:00:52.644Z,99.90
2023-04-09T03:03:19.679Z,99.90
2023-04-09T03:05:46.815Z,99.90
2023-04-09T03:08:13.950Z,99.90
2023-04-09T03:10:40.899Z,99.90
2023-04-09T03:13:07.822Z,99.90
2023-04-09T03:15:34.908Z,99.90
2023-04-09T03:18:01.836Z,99.90
2023-04-09T03:20:28.727Z,99.90
2023-04-09T03:22:55.866Z,99.90
2023-04-09T03:25:22.823Z,99.90
2023-04-09T03:27:49.761Z,99.90
2023-04-09T03:30:16.816Z,99.90
2023-04-09T03:32:43.762Z,99.90
2023-04-09T03:35:10.747Z,99.90
2023-04-09T03:37:37.698Z,99.90
2023-04-09T03:40:05.066Z,99.90
2023-04-09T03:42:31.990Z,99.90
2023-04-09T03:44:59.035Z,99.90
2023-04-09T03:47:26.085Z,99.90
2023-04-09T03:49:53.006Z,99.90
2023-04-09T03:52:20.055Z,99.90
2023-04-09T03:54:47.015Z,99.90
2023-04-09T03:57:14.081Z,99.90
2023-04-09T03:59:41.105Z,99.90
2023-04-09T04:02:08.157Z,99.90
2023-04-09T04:04:35.458Z,99.90
2023-04-09T04:07:04.010Z,99.90
2023-04-09T04:09:30.963Z,99.90
2023-04-09T04:11:58.988Z,99.90
2023-04-09T04:14:26.069Z,99.90
2023-04-09T04:16:53.008Z,99.90
2023-04-09T04:19:19.869Z,99.90
2023-04-09T04:21:46.831Z,99.90
2023-04-09T04:24:13.696Z,99.90
2023-04-09T04:26:40.665Z,99.90
2023-04-09T04:29:07.680Z,99.90
2023-04-09T04:31:34.718Z,99.90
2023-04-09T04:34:01.649Z,99.90
2023-04-09T04:36:28.738Z,99.90
2023-04-09T04:38:55.632Z,99.90
2023-04-09T04:41:22.671Z,99.90
2023-04-09T04:43:49.664Z,99.90
2023-04-09T04:46:16.706Z,99.90
2023-04-09T04:48:43.691Z,99.90
2023-04-09T04:51:10.852Z,99.90
2023-04-09T04:53:37.750Z,99.90
2023-04-09T04:56:04.926Z,99.90
2023-04-09T04:58:31.939Z,99.90
2023-04-09T05:01:00.465Z,99.90
2023-04-09T05:03:27.713Z,99.90
2023-04-09T05:05:54.912Z,99.90
2023-04-09T05:08:21.885Z,99.90
2023-04-09T05:10:48.867Z,99.90
2023-04-09T05:13:16.017Z,99.90
2023-04-09T05:15:42.987Z,99.90
2023-04-09T05:18:09.956Z,99.90
2023-04-09T05:20:37.745Z,99.90
2023-04-09T05:23:04.826Z,99.90
2023-04-09T05:25:31.867Z,99.90
2023-04-09T05:27:58.868Z,99.90
2023-04-09T05:30:25.928Z,99.90
2023-04-09T05:32:52.886Z,99.90
2023-04-09T05:35:19.941Z,99.90
2023-04-09T05:37:46.974Z,99.90
2023-04-09T05:40:14.884Z,99.90
2023-04-09T05:42:41.832Z,99.90
2023-04-09T05:45:09.586Z,99.90
2023-04-09T05:47:36.617Z,99.90
2023-04-09T05:50:04.505Z,99.90
2023-04-09T05:52:31.512Z,99.90
2023-04-09T05:54:58.418Z,99.90
2023-04-09T05:57:25.503Z,99.90
2023-04-09T05:59:52.465Z,99.90
2023-04-09T06:02:19.416Z,99.90
2023-04-09T06:04:46.623Z,99.90
2023-04-09T06:07:13.643Z,99.90
2023-04-09T06:09:40.701Z,99.90
2023-04-09T06:12:07.675Z,99.90
2023-04-09T06:14:34.730Z,99.90
2023-04-09T06:17:01.697Z,99.90
2023-04-09T06:19:29.135Z,99.90
2023-04-09T06:21:56.428Z,99.90
2023-04-09T06:24:23.520Z,99.90
2023-04-09T06:26:50.602Z,99.90
2023-04-09T06:29:17.595Z,99.90
2023-04-09T06:31:44.608Z,99.90
2023-04-09T06:34:11.733Z,99.90
2023-04-09T06:36:40.470Z,99.90
2023-04-09T06:39:07.640Z,99.90
2023-04-09T06:41:34.657Z,99.90
2023-04-09T06:44:01.767Z,99.90
2023-04-09T06:46:32.126Z,99.90
2023-04-09T06:48:59.133Z,99.90
2023-04-09T06:51:27.143Z,99.90
2023-04-09T06:53:54.526Z,99.90
2023-04-09T06:56:22.079Z,99.90
2023-04-09T06:58:49.012Z,99.90
2023-04-09T07:01:17.458Z,99.90
2023-04-09T07:03:44.929Z,99.90
2023-04-09T07:06:12.015Z,99.90
2023-04-09T07:08:38.884Z,99.90
2023-04-09T07:11:05.873Z,99.90
2023-04-09T07:13:33.469Z,99.90
2023-04-09T07:16:00.828Z,99.90
2023-04-09T07:18:27.856Z,99.90
2023-04-09T07:20:55.337Z,99.90
2023-04-09T07:23:22.917Z,99.90
2023-04-09T07:25:50.043Z,99.90
2023-04-09T07:28:20.031Z,99.90
2023-04-09T07:30:49.389Z,99.90
2023-04-09T07:33:16.557Z,99.90
2023-04-09T07:35:43.800Z,99.90
2023-04-09T07:38:13.551Z,99.90
2023-04-09T07:40:42.065Z,99.90
2023-04-09T07:43:12.481Z,99.90
2023-04-09T07:45:40.911Z,99.90
2023-04-09T07:48:13.532Z,99.90
2023-04-09T07:50:40.463Z,99.90
2023-04-09T07:53:11.974Z,99.90
2023-04-09T07:55:41.639Z,99.90
2023-04-09T07:58:12.176Z,99.90
2023-04-09T08:00:44.018Z,99.90
2023-04-09T08:03:13.543Z,99.90
2023-04-09T08:05:56.214Z,99.90
2023-04-09T08:08:23.325Z,99.90
2023-04-09T08:10:50.805Z,99.90
2023-04-09T08:13:20.659Z,99.90
2023-04-09T08:15:47.822Z,99.90
2023-04-09T08:18:14.723Z,99.90
2023-04-09T08:20:48.114Z,99.90
2023-04-09T08:23:15.258Z,99.90
2023-04-09T08:25:42.116Z,99.90
2023-04-09T08:28:09.078Z,99.90
2023-04-09T08:30:36.487Z,99.90
2023-04-09T08:33:03.765Z,99.90
2023-04-09T08:35:34.094Z,99.90
2023-04-09T08:38:03.793Z,99.90
2023-04-09T08:40:36.042Z,99.90
2023-04-09T08:43:09.141Z,99.90
2023-04-09T08:45:36.748Z,99.90
2023-04-09T08:48:05.223Z,99.90
2023-04-09T08:50:34.268Z,99.90
2023-04-09T08:53:06.540Z,99.90
2023-04-09T08:55:37.616Z,99.90
2023-04-09T08:58:10.654Z,99.90
2023-04-09T09:00:38.093Z,99.90
2023-04-09T09:03:10.159Z,99.90
2023-04-09T09:05:40.023Z,99.90
2023-04-09T09:08:09.720Z,99.90
2023-04-09T09:10:46.619Z,99.90
2023-04-09T09:13:27.572Z,99.90
2023-04-09T09:16:11.605Z,99.90
2023-04-09T09:18:43.211Z,99.90
2023-04-09T09:21:17.880Z,99.90
2023-04-09T09:23:45.998Z,99.90
2023-04-09T09:26:30.413Z,99.90
2023-04-09T09:29:01.400Z,99.90
2023-04-09T09:31:28.459Z,99.90
2023-04-09T09:33:55.881Z,99.90
2023-04-09T09:36:34.043Z,99.90
2023-04-09T09:39:10.188Z,99.90
2023-04-09T09:41:37.674Z,99.90
2023-04-09T09:44:07.304Z,99.90
2023-04-09T09:46:42.402Z,99.90
2023-04-09T09:49:09.718Z,99.90
2023-04-09T09:51:39.749Z,99.90
2023-04-09T09:54:09.296Z,99.90
2023-04-09T09:56:39.127Z,99.90
2023-04-09T09:59:28.538Z,99.90
2023-04-09T10:02:05.870Z,99.90
2023-04-09T10:04:36.972Z,99.90
2023-04-09T10:07:07.736Z,99.90
2023-04-09T10:09:38.009Z,99.90
2023-04-09T10:12:07.485Z,99.90
2023-04-09T10:14:36.212Z,99.70
2023-04-09T10:17:04.520Z,99.90
2023-04-09T10:19:35.567Z,99.90
2023-04-09T10:22:09.950Z,99.90
2023-04-09T10:24:37.115Z,99.30
2023-04-09T10:27:16.480Z,99.90
2023-04-09T10:29:49.084Z,99.90
2023-04-09T10:32:21.858Z,99.90
2023-04-09T10:34:50.750Z,99.90
2023-04-09T10:37:27.016Z,99.90
2023-04-09T10:39:54.166Z,99.90
2023-04-09T10:42:30.705Z,99.90
2023-04-09T10:45:12.288Z,99.90
2023-04-09T10:47:41.349Z,99.90
2023-04-09T10:50:18.942Z,99.90
2023-04-09T10:52:46.402Z,99.90
2023-04-09T10:55:48.798Z,99.90
2023-04-09T10:58:16.051Z,99.90
2023-04-09T11:00:46.967Z,99.90
2023-04-09T11:03:26.167Z,99.90
2023-04-09T11:05:59.121Z,99.90
2023-04-09T11:08:30.348Z,99.90
2023-04-09T11:10:58.612Z,99.90
2023-04-09T11:13:26.191Z,99.90
2023-04-09T11:15:54.591Z,99.90
2023-04-09T11:18:25.848Z,99.90
2023-04-09T11:21:01.287Z,99.90
2023-04-09T11:23:28.653Z,99.80
2023-04-09T11:25:56.277Z,99.80
2023-04-09T11:28:24.471Z,99.60
2023-04-09T11:30:52.217Z,99.70
2023-04-09T11:33:20.233Z,99.70
2023-04-09T11:35:49.763Z,99.60
2023-04-09T11:38:19.846Z,99.60
2023-04-09T11:40:50.437Z,99.40
2023-04-09T11:43:18.083Z,99.90
2023-04-09T11:45:48.442Z,99.80
2023-04-09T11:48:18.578Z,99.40
2023-04-09T11:50:46.860Z,99.80
2023-04-09T11:53:21.334Z,99.90
2023-04-09T11:55:51.548Z,99.80
2023-04-09T11:58:18.816Z,99.90
2023-04-09T12:00:48.415Z,99.70
2023-04-09T12:03:16.890Z,99.90
2023-04-09T12:05:50.988Z,99.90
2023-04-09T12:08:26.603Z,99.90
2023-04-09T12:10:54.294Z,99.90
2023-04-09T12:13:21.806Z,99.90
2023-04-09T12:15:50.172Z,99.90
2023-04-09T12:18:17.525Z,99.90
2023-04-09T12:20:47.523Z,99.90
2023-04-09T12:23:14.756Z,99.90
2023-04-09T12:25:43.892Z,99.90
2023-04-09T12:28:18.296Z,99.90
2023-04-09T12:30:46.122Z,99.90
2023-04-09T12:33:13.085Z,99.90
2023-04-09T12:35:40.148Z,99.90
2023-04-09T12:38:07.212Z,99.90
2023-04-09T12:40:35.699Z,99.90
2023-04-09T12:43:03.135Z,99.90
2023-04-09T12:45:31.136Z,99.90
2023-04-09T12:47:58.686Z,99.90
2023-04-09T12:50:25.737Z,99.50
2023-04-09T12:52:55.621Z,99.60
2023-04-09T12:55:25.023Z,99.20
2023-04-09T12:57:52.090Z,99.00
2023-04-09T13:00:19.224Z,99.20
2023-04-09T13:02:46.549Z,98.90
2023-04-09T13:05:13.680Z,98.60
2023-04-09T13:07:42.822Z,98.70
2023-04-09T13:10:10.673Z,97.90
2023-04-09T13:12:37.643Z,98.00
2023-04-09T13:15:07.733Z,97.60
2023-04-09T13:17:34.863Z,98.40
2023-04-09T13:20:01.918Z,98.30
2023-04-09T13:22:29.007Z,98.40
2023-04-09T13:24:55.979Z,98.50
2023-04-09T13:27:22.983Z,98.40
2023-04-09T13:29:49.983Z,98.00
2023-04-09T13:32:18.344Z,98.30
2023-04-09T13:34:45.587Z,98.20
2023-04-09T13:37:12.498Z,97.60
2023-04-09T13:39:39.464Z,97.50
2023-04-09T13:42:13.585Z,97.30
2023-04-09T13:44:44.946Z,97.00
2023-04-09T13:47:13.458Z,97.00
2023-04-09T13:49:41.442Z,97.20
2023-04-09T13:52:09.522Z,97.30
2023-04-09T13:54:37.015Z,98.10
2023-04-09T13:57:04.223Z,98.60
2023-04-09T13:59:31.625Z,99.00
2023-04-09T14:01:58.882Z,99.40
2023-04-09T14:04:29.328Z,99.20
2023-04-09T14:06:57.618Z,99.40
2023-04-09T14:09:24.627Z,99.40
2023-04-09T14:11:51.692Z,99.50
2023-04-09T14:14:19.996Z,99.50
2023-04-09T14:16:48.485Z,99.20
2023-04-09T14:19:15.553Z,99.30
2023-04-09T14:21:42.704Z,99.50
2023-04-09T14:24:09.624Z,99.80
2023-04-09T14:26:37.383Z,99.90
2023-04-09T14:29:04.528Z,99.90
2023-04-09T14:31:31.460Z,99.90
2023-04-09T14:33:58.593Z,99.90
2023-04-09T14:36:27.209Z,99.90
2023-04-09T14:38:58.109Z,99.60
2023-04-09T14:41:25.286Z,99.70
2023-04-09T14:43:52.500Z,99.90
2023-04-09T14:46:20.294Z,99.90
2023-04-09T14:48:47.391Z,99.90
2023-04-09T14:51:14.517Z,99.30
2023-04-09T14:53:41.593Z,99.50
2023-04-09T14:56:08.628Z,99.70
2023-04-09T14:58:36.474Z,99.90
2023-04-09T15:01:04.429Z,99.90
2023-04-09T15:03:31.482Z,99.90
2023-04-09T15:05:59.756Z,99.90
2023-04-09T15:08:26.744Z,99.90
2023-04-09T15:10:53.633Z,99.90
2023-04-09T15:13:20.824Z,99.90
2023-04-09T15:15:47.803Z,99.90
2023-04-09T15:18:14.806Z,99.90
2023-04-09T15:20:44.696Z,99.90
2023-04-09T15:23:13.990Z,99.90
2023-04-09T15:25:40.891Z,99.90
2023-04-09T15:28:17.347Z,99.90
2023-04-09T15:30:44.335Z,99.90
2023-04-09T15:33:12.429Z,99.90
2023-04-09T15:35:39.560Z,99.90
2023-04-09T15:38:06.483Z,99.90
2023-04-09T15:40:33.462Z,99.90
2023-04-09T15:43:03.472Z,99.90
2023-04-09T15:45:30.435Z,99.90
2023-04-09T15:47:57.494Z,99.90
2023-04-09T15:50:24.923Z,99.90
2023-04-09T15:52:51.859Z,99.90
2023-04-09T15:55:22.533Z,99.90
2023-04-09T15:57:50.201Z,99.90
2023-04-09T16:00:17.249Z,99.90
2023-04-09T16:02:44.291Z,99.90
2023-04-09T16:05:11.478Z,99.90
2023-04-09T16:07:39.750Z,99.90
2023-04-09T16:10:09.834Z,99.90
2023-04-09T16:12:36.904Z,99.90
2023-04-09T16:15:03.897Z,99.90
2023-04-09T16:17:30.981Z,99.90
2023-04-09T16:19:58.381Z,99.90
2023-04-09T16:22:25.503Z,99.90
2023-04-09T16:24:52.587Z,99.90
2023-04-09T16:27:19.724Z,99.90
2023-04-09T16:29:48.980Z,99.90
2023-04-09T16:32:16.061Z,99.90
2023-04-09T16:34:46.042Z,99.90
2023-04-09T16:37:13.216Z,99.90
2023-04-09T16:39:40.260Z,99.90
2023-04-09T16:42:07.192Z,99.90
2023-04-09T16:44:34.201Z,99.90
2023-04-09T16:47:08.362Z,99.90
2023-04-09T16:49:35.494Z,99.90
2023-04-09T16:52:02.400Z,99.90
2023-04-09T16:54:29.392Z,99.90
2023-04-09T16:56:57.550Z,99.90
2023-04-09T16:59:32.499Z,99.90
2023-04-09T17:01:59.768Z,99.90
2023-04-09T17:04:27.383Z,99.90
2023-04-09T17:06:54.394Z,99.90
2023-04-09T17:09:21.414Z,99.90
2023-04-09T17:11:51.472Z,99.90
2023-04-09T17:14:18.662Z,99.90
2023-04-09T17:16:47.285Z,99.90
2023-04-09T17:19:14.661Z,99.90
2023-04-09T17:21:44.039Z,99.90
2023-04-09T17:24:11.016Z,99.90
2023-04-09T17:26:37.931Z,99.90
2023-04-09T17:29:07.738Z,99.90
2023-04-09T17:31:38.432Z,99.90
2023-04-09T17:34:05.492Z,99.90
2023-04-09T17:36:32.614Z,99.90
2023-04-09T17:38:59.516Z,99.90
2023-04-09T17:41:27.764Z,99.90
2023-04-09T17:43:57.372Z,99.90
2023-04-09T17:46:25.718Z,99.90
2023-04-09T17:48:53.485Z,99.90
2023-04-09T17:51:20.866Z,99.90
2023-04-09T17:53:47.771Z,99.90
2023-04-09T17:56:17.164Z,99.90
2023-04-09T17:58:44.942Z,99.90
2023-04-09T18:01:13.534Z,99.90
2023-04-09T18:03:42.770Z,99.90
2023-04-09T18:06:10.103Z,99.90
2023-04-09T18:08:37.582Z,99.90
2023-04-09T18:11:12.740Z,99.90
2023-04-09T18:13:40.527Z,99.90
2023-04-09T18:16:12.362Z,99.90
2023-04-09T18:18:39.584Z,99.90
2023-04-09T18:21:06.857Z,99.90
2023-04-09T18:23:33.932Z,99.90
2023-04-09T18:26:01.131Z,99.90
2023-04-09T18:28:28.245Z,99.90
2023-04-09T18:30:55.280Z,99.90
2023-04-09T18:33:22.222Z,99.90
2023-04-09T18:35:49.272Z,99.90
2023-04-09T18:38:16.318Z,99.90
2023-04-09T18:40:44.325Z,99.90
2023-04-09T18:43:12.513Z,99.90
2023-04-09T18:45:39.795Z,99.90
2023-04-09T18:48:08.201Z,99.90
2023-04-09T18:50:41.321Z,99.90
2023-04-09T18:53:08.256Z,99.90
2023-04-09T18:55:38.354Z,99.90
2023-04-09T18:58:12.708Z,99.90
2023-04-09T19:00:39.980Z,99.90
2023-04-09T19:03:07.340Z,99.90
2023-04-09T19:05:35.515Z,99.90
2023-04-09T19:08:04.374Z,99.90
2023-04-09T19:10:32.898Z,99.90
2023-04-09T19:12:59.964Z,99.90
2023-04-09T19:15:27.170Z,99.90
2023-04-09T19:17:54.257Z,99.90
2023-04-09T19:20:21.745Z,99.90
2023-04-09T19:22:57.359Z,99.90
2023-04-09T19:25:25.933Z,99.90
2023-04-09T19:27:54.307Z,99.90
2023-04-09T19:30:21.382Z,99.90
2023-04-09T19:32:48.473Z,99.90
2023-04-09T19:35:15.604Z,99.90
2023-04-09T19:37:42.637Z,99.90
2023-04-09T19:40:10.286Z,99.90
2023-04-09T19:42:37.198Z,99.90
2023-04-09T19:45:04.369Z,99.90
2023-04-09T19:47:31.411Z,99.90
2023-04-09T19:49:58.388Z,99.90
2023-04-09T19:52:26.022Z,99.90
2023-04-09T19:54:56.694Z,99.90
2023-04-09T19:57:23.686Z,99.90
2023-04-09T19:59:52.304Z,99.90
2023-04-09T20:02:19.435Z,99.90
2023-04-09T20:04:46.525Z,99.90
2023-04-09T20:07:13.588Z,99.90
2023-04-09T20:09:42.533Z,99.90
2023-04-09T20:12:10.209Z,99.90
2023-04-09T20:14:38.307Z,99.90
2023-04-09T20:17:06.724Z,99.90
2023-04-09T20:19:33.657Z,99.90
2023-04-09T20:22:00.827Z,99.90
2023-04-09T20:24:28.449Z,99.90
2023-04-09T20:26:56.313Z,99.90
2023-04-09T20:29:23.351Z,99.90
2023-04-09T20:31:50.391Z,99.90
2023-04-09T20:34:17.344Z,99.90
2023-04-09T20:36:44.649Z,99.90
2023-04-09T20:39:11.784Z,99.90
2023-04-09T20:41:38.846Z,99.90
2023-04-09T20:44:06.260Z,99.90
2023-04-09T20:46:33.234Z,99.90
2023-04-09T20:49:01.626Z,99.90
2023-04-09T20:51:28.759Z,99.90
2023-04-09T20:53:55.775Z,99.90
2023-04-09T20:56:23.002Z,99.90
2023-04-09T20:58:49.913Z,99.90
2023-04-09T21:01:18.404Z,99.90
2023-04-09T21:03:45.450Z,99.90
2023-04-09T21:06:12.550Z,99.90
2023-04-09T21:08:42.828Z,99.90
2023-04-09T21:11:10.272Z,99.90
2023-04-09T21:13:53.124Z,99.90
2023-04-09T21:16:21.451Z,99.90
2023-04-09T21:18:48.992Z,99.90
2023-04-09T21:21:19.097Z,99.90
2023-04-09T21:23:46.236Z,99.90
2023-04-09T21:26:14.181Z,99.90
2023-04-09T21:28:41.119Z,99.90
2023-04-09T21:31:12.091Z,99.90
2023-04-09T21:33:39.380Z,99.90
2023-04-09T21:36:08.115Z,99.90
2023-04-09T21:38:35.691Z,99.90
2023-04-09T21:41:02.908Z,99.90
2023-04-09T21:43:30.438Z,99.90
2023-04-09T21:45:57.825Z,99.90
2023-04-09T21:48:26.425Z,99.90
2023-04-09T21:50:53.396Z,99.90
2023-04-09T21:53:20.523Z,99.90
2023-04-09T21:55:47.488Z,99.90
2023-04-09T21:58:14.463Z,99.90
2023-04-09T22:00:41.632Z,99.90
2023-04-09T22:03:08.755Z,99.90
2023-04-09T22:05:35.933Z,99.90
2023-04-09T22:08:03.152Z,99.90
2023-04-09T22:10:30.107Z,99.90
2023-04-09T22:12:57.115Z,99.90
2023-04-09T22:15:24.099Z,99.90
2023-04-09T22:17:51.159Z,99.90
2023-04-09T22:20:18.134Z,99.90
2023-04-09T22:22:48.865Z,99.90
2023-04-09T22:25:15.963Z,99.90
2023-04-09T22:27:43.897Z,99.90
2023-04-09T22:30:11.367Z,99.90
2023-04-09T22:32:38.333Z,99.90
2023-04-09T22:35:05.793Z,99.90
2023-04-09T22:37:32.833Z,99.90
2023-04-09T22:39:59.746Z,99.90
2023-04-09T22:42:27.386Z,99.90
2023-04-09T22:44:54.437Z,99.90
2023-04-09T22:47:21.437Z,99.90
2023-04-09T22:49:52.789Z,99.90
2023-04-09T22:52:19.869Z,99.90
2023-04-09T22:54:46.937Z,99.90
2023-04-09T22:57:13.849Z,99.90
2023-04-09T22:59:41.130Z,99.90
2023-04-09T23:02:08.517Z,99.90
2023-04-09T23:04:35.795Z,99.90
2023-04-09T23:07:02.971Z,99.90
2023-04-09T23:09:32.767Z,99.90
2023-04-09T23:11:59.657Z,99.90
2023-04-09T23:14:26.873Z,99.90
2023-04-09T23:16:53.893Z,99.90
2023-04-09T23:19:20.864Z,99.90
2023-04-09T23:21:47.873Z,99.90
2023-04-09T23:24:14.862Z,99.90
2023-04-09T23:26:41.798Z,99.90
2023-04-09T23:29:08.814Z,99.90
2023-04-09T23:31:35.875Z,99.90
2023-04-09T23:34:02.801Z,99.90
2023-04-09T23:36:29.777Z,99.90
2023-04-09T23:38:56.750Z,99.90
2023-04-09T23:41:23.728Z,99.90
2023-04-09T23:43:51.568Z,99.90
2023-04-09T23:46:18.745Z,99.90
2023-04-09T23:48:45.664Z,99.90
2023-04-09T23:51:19.589Z,99.90
2023-04-09T23:53:46.646Z,99.90
2023-04-09T23:56:14.525Z,99.90
2023-04-09T23:58:42.622Z,99.90
